Ashland, Illinois
Current Conditions -  °F | °C
As of 8:55 PM on Friday 21 Nov 2014 (Local Time) from KIJX Reporting Station
Moderate Rain Moderate Rain  
Wind Chill: 31°   Ceiling: 2700
Heat Index: 38°   Visibility: 7mi
Dew Point: 26°   Wind: 13mph
Humidity: 60%   Direction: 160°SSE
Pressure: 30.21"   Gusts: 17mph
Location:  39.89°N, 90.01°W
Report Text: KIJX 220255Z AUTO 16011G15KT 7SM RA SCT018 BKN027 OVC080 04/M04 A3021 RMK AO2 T00361036
Loading
Personal Weather Stations






























Interactive Weather Map New forecast layout! Learn more

10-Day Weather Forecast

Advertisements
Track Severe Weather on mobile